Time;durP1;ratioP1;P1;durP2;ratioP2;P2;SDS_P1;SDS_P2;PMS_P1;PMS_P2;Temp;Humidity;BMP_temperature;BMP_pressure;BME280_temperature;BME280_humidity;BME280_pressure;Samples;Min_cycle;Max_cycle;Signal;HPM_P1;HPM_P2
2022/09/01 00:01:30;;;;;;;2.15;1.02;;;20.70;77.90;;;;;;4146310;28;20072;-66
2022/09/01 00:03:31;;;;;;;1.20;0.95;;;20.70;79.40;;;;;;4145130;28;20100;-65
2022/09/01 00:05:32;;;;;;;2.58;1.10;;;20.60;76.20;;;;;;4144825;28;20044;-65
2022/09/01 00:07:34;;;;;;;2.25;0.90;;;20.60;76.60;;;;;;4145841;28;20029;-65
2022/09/01 00:09:34;;;;;;;1.08;0.70;;;20.60;76.60;;;;;;4146961;28;20060;-65
2022/09/01 00:11:35;;;;;;;1.83;1.02;;;20.50;78.10;;;;;;4145407;28;20417;-65
2022/09/01 00:13:36;;;;;;;1.13;0.73;;;20.50;76.40;;;;;;4145546;28;20493;-66
2022/09/01 00:15:37;;;;;;;1.35;0.80;;;20.60;78.20;;;;;;4144969;28;20493;-66
2022/09/01 00:17:37;;;;;;;1.40;1.20;;;20.60;77.10;;;;;;4145447;28;20049;-64
2022/09/01 00:19:38;;;;;;;0.85;0.77;;;20.50;76.00;;;;;;4146963;28;20041;-65
2022/09/01 00:21:42;;;;;;;2.60;1.10;;;20.50;75.90;;;;;;4143783;28;20030;-65
2022/09/01 00:23:43;;;;;;;2.22;1.20;;;20.40;76.10;;;;;;4145546;28;20038;-65
2022/09/01 00:25:44;;;;;;;2.05;1.17;;;20.20;76.20;;;;;;4144952;28;20033;-65
2022/09/01 00:27:47;;;;;;;2.35;0.85;;;20.10;76.70;;;;;;4145090;28;20049;-65
2022/09/01 00:29:47;;;;;;;2.40;1.00;;;19.90;77.50;;;;;;4144337;28;20026;-66
2022/09/01 00:31:48;;;;;;;1.40;0.80;;;19.80;78.10;;;;;;4140383;28;20177;-64
2022/09/01 00:33:50;;;;;;;1.90;0.98;;;19.70;78.40;;;;;;4140362;28;20054;-65
2022/09/01 00:35:51;;;;;;;2.10;1.02;;;19.50;78.50;;;;;;4138962;28;20038;-65
2022/09/01 00:37:51;;;;;;;1.83;1.00;;;19.40;78.70;;;;;;4142834;28;20034;-66
2022/09/01 00:39:52;;;;;;;1.30;0.90;;;19.40;78.80;;;;;;4143199;28;20037;-65
2022/09/01 00:41:52;;;;;;;1.25;0.90;;;19.40;78.90;;;;;;4140293;28;20615;-65
2022/09/01 00:44:00;;;;;;;1.80;1.20;;;19.50;78.90;;;;;;4143655;28;20117;-65
2022/09/01 00:46:06;;;;;;;1.10;0.70;;;19.50;79.40;;;;;;4140493;28;20057;-65
2022/09/01 00:48:08;;;;;;;1.27;0.90;;;19.60;78.80;;;;;;4142940;28;20030;-65
2022/09/01 00:50:10;;;;;;;1.63;1.00;;;19.60;78.80;;;;;;4141761;28;20046;-66
2022/09/01 00:52:17;;;;;;;1.25;0.85;;;19.60;78.90;;;;;;4142356;28;20127;-66
2022/09/01 00:54:23;;;;;;;1.00;0.90;;;19.70;79.90;;;;;;4137831;28;20058;-66
2022/09/01 00:56:24;;;;;;;1.85;0.88;;;19.70;79.50;;;;;;4141980;28;20064;-65
2022/09/01 00:58:25;;;;;;;1.45;0.95;;;19.80;79.60;;;;;;4141830;28;20030;-65
2022/09/01 01:00:30;;;;;;;1.00;0.73;;;19.80;79.60;;;;;;4139339;28;20038;-66
2022/09/01 01:02:30;;;;;;;0.68;0.65;;;19.90;79.90;;;;;;4138511;28;20034;-66
2022/09/01 01:04:31;;;;;;;1.80;0.82;;;19.90;80.50;;;;;;4137410;28;20044;-65
2022/09/01 01:06:32;;;;;;;1.92;0.93;;;20.00;81.20;;;;;;4143756;28;20030;-66
2022/09/01 01:08:35;;;;;;;2.53;1.10;;;20.00;80.20;;;;;;4139768;28;20026;-66
2022/09/01 01:10:39;;;;;;;1.42;0.90;;;20.00;80.10;;;;;;4144474;28;20384;-65
2022/09/01 01:12:42;;;;;;;1.00;0.90;;;20.00;81.00;;;;;;4141797;28;20480;-66
2022/09/01 01:14:44;;;;;;;;;;;20.10;81.30;;;;;;4141213;28;20048;-65
2022/09/01 01:16:50;;;;;;;1.50;1.00;;;20.00;80.30;;;;;;4136886;28;19918;-65
2022/09/01 01:18:52;;;;;;;1.02;0.90;;;20.00;79.70;;;;;;4139949;28;20113;-65
2022/09/01 01:23:35;;;;;;;3.88;1.00;;;20.10;80.30;;;;;;4141114;28;20038;-65
2022/09/01 01:25:53;;;;;;;;;;;20.10;79.90;;;;;;4139659;28;20033;-65
2022/09/01 01:28:29;;;;;;;1.73;1.02;;;20.00;80.20;;;;;;4136557;28;19960;-66
2022/09/01 01:30:35;;;;;;;0.93;0.75;;;20.10;79.90;;;;;;4129943;28;20037;-65
2022/09/01 01:32:42;;;;;;;1.85;0.85;;;20.00;80.10;;;;;;4139083;28;20030;-65
2022/09/01 01:34:44;;;;;;;1.30;1.00;;;20.00;80.20;;;;;;4139748;28;20033;-65
2022/09/01 01:36:45;;;;;;;1.67;0.90;;;20.10;82.20;;;;;;4140491;28;20058;-65
2022/09/01 01:38:48;;;;;;;1.17;0.77;;;20.00;80.00;;;;;;4139285;28;20041;-65
2022/09/01 01:40:50;;;;;;;1.10;0.80;;;20.00;80.00;;;;;;4141317;28;20101;-66
2022/09/01 01:42:53;;;;;;;1.40;0.90;;;20.00;79.50;;;;;;4139558;28;21250;-65
2022/09/01 01:44:54;;;;;;;;;;;20.00;79.40;;;;;;4137597;28;20042;-65
2022/09/01 01:46:56;;;;;;;0.93;0.80;;;20.00;79.90;;;;;;4134755;28;20328;-66
2022/09/01 01:48:56;;;;;;;1.48;0.82;;;20.00;79.90;;;;;;4137791;28;20041;-65
2022/09/01 01:50:58;;;;;;;1.40;0.80;;;20.00;79.70;;;;;;4140917;28;20109;-65
2022/09/01 01:53:01;;;;;;;1.50;1.10;;;20.00;79.00;;;;;;4139895;28;20030;-65
2022/09/01 01:55:02;;;;;;;1.45;0.90;;;19.90;79.00;;;;;;4141082;28;20026;-65
2022/09/01 01:57:03;;;;;;;1.00;0.73;;;19.90;79.40;;;;;;4139151;28;20392;-66
2022/09/01 01:59:04;;;;;;;1.63;0.90;;;19.80;79.70;;;;;;4138881;28;20030;-66
2022/09/01 02:01:05;;;;;;;0.95;0.70;;;19.80;80.00;;;;;;4140667;28;20458;-66
2022/09/01 02:03:06;;;;;;;1.95;0.90;;;19.80;80.10;;;;;;4142733;28;20397;-66
2022/09/01 02:05:07;;;;;;;1.60;1.20;;;19.70;80.20;;;;;;4137520;28;20038;-66
2022/09/01 02:07:12;;;;;;;0.88;0.73;;;19.70;80.80;;;;;;4139335;28;20108;-66
2022/09/01 02:09:19;;;;;;;4.82;0.95;;;19.70;80.00;;;;;;4137368;28;20061;-66
2022/09/01 02:11:20;;;;;;;2.00;0.98;;;19.70;80.20;;;;;;4141288;28;20049;-65
2022/09/01 02:13:29;;;;;;;1.05;0.75;;;19.70;80.80;;;;;;4142122;28;20104;-66
2022/09/01 02:15:33;;;;;;;2.42;0.90;;;19.70;81.90;;;;;;4137819;28;20072;-66
2022/09/01 02:17:34;;;;;;;1.20;0.90;;;19.70;81.60;;;;;;4137945;28;20034;-66
2022/09/01 02:19:37;;;;;;;1.48;1.00;;;19.70;81.90;;;;;;4140647;28;20516;-66
2022/09/01 02:21:43;;;;;;;2.42;0.90;;;19.60;82.10;;;;;;4142117;28;20042;-66
2022/09/01 02:23:47;;;;;;;2.00;1.13;;;19.70;82.60;;;;;;4141020;28;20109;-66
2022/09/01 02:25:50;;;;;;;1.88;1.05;;;19.70;82.60;;;;;;4134467;28;20037;-66
2022/09/01 02:27:52;;;;;;;;;;;19.70;81.30;;;;;;4138877;28;20034;-66
2022/09/01 02:29:54;;;;;;;1.25;0.82;;;19.60;81.30;;;;;;4138974;28;19917;-65
2022/09/01 02:31:56;;;;;;;1.70;1.13;;;19.50;81.60;;;;;;4139305;28;20505;-66
2022/09/01 02:33:57;;;;;;;2.25;0.98;;;19.30;82.00;;;;;;4137609;28;20437;-66
2022/09/01 02:36:01;;;;;;;1.50;0.98;;;19.30;82.30;;;;;;4142102;28;20053;-65
2022/09/01 02:38:04;;;;;;;1.30;0.98;;;19.20;82.50;;;;;;4137356;28;20050;-65
2022/09/01 02:40:08;;;;;;;1.48;1.20;;;19.20;83.40;;;;;;4139752;28;20522;-66
2022/09/01 02:42:10;;;;;;;2.00;1.25;;;19.30;84.40;;;;;;4138165;28;20034;-66
2022/09/01 02:44:11;;;;;;;1.52;0.82;;;19.30;84.30;;;;;;4137170;28;20041;-65
2022/09/01 02:46:13;;;;;;;1.48;1.10;;;19.30;84.50;;;;;;4140683;28;20073;-65
2022/09/01 02:48:14;;;;;;;1.33;1.00;;;19.30;82.60;;;;;;4146745;28;20022;-65
2022/09/01 02:50:17;;;;;;;1.10;1.00;;;19.40;82.80;;;;;;4147967;28;20038;-66
2022/09/01 02:52:19;;;;;;;2.00;1.08;;;19.30;82.60;;;;;;4146416;28;20534;-66
2022/09/01 02:54:21;;;;;;;2.70;1.08;;;19.30;81.90;;;;;;4146416;28;20018;-66
2022/09/01 02:56:26;;;;;;;2.45;1.10;;;19.20;81.80;;;;;;4144961;28;20030;-65
2022/09/01 02:58:28;;;;;;;1.10;0.98;;;19.20;82.00;;;;;;4146228;28;20065;-66
2022/09/01 03:00:32;;;;;;;2.03;1.10;;;19.20;82.80;;;;;;4145833;28;20029;-65
2022/09/01 03:02:34;;;;;;;2.67;1.17;;;19.20;83.20;;;;;;4145584;28;20042;-66
2022/09/01 03:04:35;;;;;;;2.03;0.82;;;19.20;83.40;;;;;;4145832;28;20385;-66
2022/09/01 03:06:37;;;;;;;1.75;1.05;;;19.20;83.70;;;;;;4145239;28;20041;-66
2022/09/01 03:08:38;;;;;;;2.17;1.20;;;19.30;83.70;;;;;;4145632;28;20433;-66
2022/09/01 03:10:40;;;;;;;2.53;1.05;;;19.30;84.60;;;;;;4146443;28;20555;-66
2022/09/01 03:12:41;;;;;;;1.48;1.08;;;19.30;83.70;;;;;;4141306;28;20033;-66
2022/09/01 03:14:41;;;;;;;1.33;1.10;;;19.30;83.40;;;;;;4144152;28;20030;-66
2022/09/01 03:16:42;;;;;;;1.65;1.05;;;19.30;82.30;;;;;;4140650;28;20061;-65
2022/09/01 03:18:43;;;;;;;2.13;1.00;;;19.30;82.60;;;;;;4145705;28;20046;-66
2022/09/01 03:20:51;;;;;;;1.77;1.00;;;19.20;83.20;;;;;;4145362;28;20393;-66
2022/09/01 03:22:52;;;;;;;1.50;1.00;;;19.10;82.50;;;;;;4146173;28;20124;-65
2022/09/01 03:24:53;;;;;;;1.92;1.10;;;19.00;82.90;;;;;;4145344;28;20038;-65
2022/09/01 03:26:53;;;;;;;1.17;1.08;;;18.90;83.20;;;;;;4145548;28;20040;-65
2022/09/01 03:28:54;;;;;;;2.08;1.35;;;18.70;83.60;;;;;;4144163;28;20044;-65
2022/09/01 03:30:56;;;;;;;2.72;1.55;;;18.50;84.10;;;;;;4143701;28;20048;-66
2022/09/01 03:32:58;;;;;;;3.22;1.33;;;18.30;84.80;;;;;;4146293;28;20037;-65
2022/09/01 03:34:59;;;;;;;2.03;1.40;;;18.20;85.80;;;;;;4146405;28;20513;-66
2022/09/01 03:37:00;;;;;;;2.80;1.38;;;18.10;85.40;;;;;;4145290;28;20176;-65
2022/09/01 03:39:01;;;;;;;1.90;1.20;;;18.00;85.60;;;;;;4147222;28;20037;-66
2022/09/01 03:41:04;;;;;;;2.13;1.40;;;17.90;86.00;;;;;;4143309;28;20046;-66
2022/09/01 03:43:12;;;;;;;3.60;1.38;;;17.70;86.50;;;;;;4146185;28;20544;-66
2022/09/01 03:45:15;;;;;;;2.42;1.35;;;17.70;87.00;;;;;;4145204;28;20029;-66
2022/09/01 03:47:15;;;;;;;2.42;1.23;;;17.60;87.70;;;;;;4146179;28;20401;-65
2022/09/01 03:49:22;;;;;;;2.40;1.45;;;17.60;88.30;;;;;;4144305;28;20036;-66
2022/09/01 03:51:23;;;;;;;2.30;1.33;;;17.60;88.80;;;;;;4143577;28;20073;-65
2022/09/01 03:53:26;;;;;;;1.92;1.20;;;17.60;89.00;;;;;;4145996;28;20501;-65
2022/09/01 03:55:29;;;;;;;2.38;1.40;;;17.70;89.00;;;;;;4145155;28;20038;-65
2022/09/01 03:57:30;;;;;;;2.80;1.10;;;17.70;87.90;;;;;;4143259;28;20138;-66
2022/09/01 03:59:31;;;;;;;2.35;1.30;;;17.80;87.60;;;;;;4147192;28;20034;-66
2022/09/01 04:01:36;;;;;;;2.58;1.23;;;17.70;87.40;;;;;;4142972;28;20030;-66
2022/09/01 04:03:39;;;;;;;3.80;1.27;;;17.80;87.60;;;;;;4145795;28;20100;-66
2022/09/01 04:05:44;;;;;;;1.52;1.20;;;17.80;88.20;;;;;;4145308;28;20153;-66
2022/09/01 04:07:47;;;;;;;2.17;1.40;;;17.90;87.90;;;;;;4144081;28;20038;-65
2022/09/01 04:09:47;;;;;;;2.78;1.73;;;18.00;88.10;;;;;;4144491;28;20069;-65
2022/09/01 04:11:50;;;;;;;3.00;1.40;;;18.00;87.90;;;;;;4146258;28;20045;-66
2022/09/01 04:13:51;;;;;;;3.75;1.27;;;18.10;88.10;;;;;;4144393;28;20038;-66
2022/09/01 04:15:52;;;;;;;2.58;1.60;;;18.10;87.30;;;;;;4143107;28;20096;-66
2022/09/01 04:18:09;;;;;;;2.90;1.70;;;18.20;87.50;;;;;;4142572;28;20073;-64
2022/09/01 04:20:10;;;;;;;2.30;1.35;;;18.20;87.40;;;;;;4144105;28;20485;-67
2022/09/01 04:22:13;;;;;;;3.13;1.50;;;18.20;87.30;;;;;;4142891;28;20081;-65
2022/09/01 04:24:14;;;;;;;2.92;1.38;;;18.30;87.20;;;;;;4143824;28;20037;-67
2022/09/01 04:26:19;;;;;;;3.13;1.42;;;18.30;87.50;;;;;;4144089;28;20040;-66
2022/09/01 04:28:23;;;;;;;2.85;1.65;;;18.30;87.40;;;;;;4143793;28;20029;-66
2022/09/01 04:30:25;;;;;;;3.00;1.40;;;18.30;87.70;;;;;;4139934;28;20133;-65
2022/09/01 04:32:26;;;;;;;4.00;1.25;;;18.40;87.90;;;;;;4143144;28;20117;-66
2022/09/01 04:34:29;;;;;;;2.42;1.50;;;18.40;86.90;;;;;;4144620;28;20525;-66
2022/09/01 04:36:32;;;;;;;;;;;18.40;86.10;;;;;;4143141;28;20066;-67
2022/09/01 04:38:35;;;;;;;2.38;1.67;;;18.40;85.80;;;;;;4144320;28;20390;-66
2022/09/01 04:40:38;;;;;;;4.18;1.90;;;18.30;85.90;;;;;;4139595;28;20489;-66
2022/09/01 04:42:41;;;;;;;3.47;2.10;;;18.30;86.40;;;;;;4143759;28;20076;-67
2022/09/01 04:44:44;;;;;;;5.82;1.92;;;18.20;86.50;;;;;;4144169;28;20941;-66
2022/09/01 04:46:47;;;;;;;3.63;1.92;;;18.00;87.00;;;;;;4143421;28;20030;-67
2022/09/01 04:48:50;;;;;;;;;;;17.80;87.50;;;;;;4144461;28;20107;-66
2022/09/01 04:50:51;;;;;;;3.03;1.63;;;17.70;87.80;;;;;;4142484;28;19925;-66
2022/09/01 04:52:54;;;;;;;3.33;1.70;;;17.70;88.10;;;;;;4142948;28;20030;-66
2022/09/01 04:54:55;;;;;;;5.10;1.67;;;17.60;88.30;;;;;;4137491;28;20448;-66
2022/09/01 04:56:55;;;;;;;3.38;1.45;;;17.60;88.40;;;;;;4143066;28;20042;-66
2022/09/01 04:58:56;;;;;;;2.58;1.70;;;17.60;88.70;;;;;;4140314;28;20124;-65
2022/09/01 05:00:59;;;;;;;3.35;1.65;;;17.60;88.80;;;;;;4136980;28;20026;-66
2022/09/01 05:03:03;;;;;;;;;;;17.60;88.60;;;;;;4144993;28;20042;-66
2022/09/01 05:05:09;;;;;;;3.28;1.77;;;17.60;88.80;;;;;;4145003;28;19923;-66
2022/09/01 05:07:10;;;;;;;2.63;1.58;;;17.50;89.00;;;;;;4144128;28;20113;-66
2022/09/01 05:09:12;;;;;;;3.88;1.90;;;17.50;89.30;;;;;;4143601;28;20038;-66
2022/09/01 05:11:16;;;;;;;3.38;1.73;;;17.50;89.50;;;;;;4141051;28;21041;-66
2022/09/01 05:13:18;;;;;;;3.47;1.80;;;17.40;89.70;;;;;;4143178;28;20030;-66
2022/09/01 05:15:19;;;;;;;2.33;1.30;;;17.40;90.00;;;;;;4143510;28;20034;-67
2022/09/01 05:17:20;;;;;;;2.70;1.80;;;17.30;90.00;;;;;;4143703;28;20069;-68
2022/09/01 05:19:25;;;;;;;4.53;1.80;;;17.30;90.00;;;;;;4140310;28;20103;-67
2022/09/01 05:21:28;;;;;;;4.03;1.88;;;17.30;90.00;;;;;;4139434;28;20042;-68
2022/09/01 05:23:30;;;;;;;;;;;17.40;90.00;;;;;;4140848;28;20049;-66
2022/09/01 05:25:37;;;;;;;2.97;1.93;;;17.30;90.00;;;;;;4143689;28;19921;-68
2022/09/01 05:27:48;;;;;;;8.23;1.80;;;17.30;90.20;;;;;;4139562;28;20605;-67
2022/09/01 05:29:49;;;;;;;4.85;1.98;;;17.30;90.40;;;;;;4140629;28;20507;-67
2022/09/01 05:31:51;;;;;;;3.42;1.88;;;17.30;90.40;;;;;;4141069;28;20117;-67
2022/09/01 05:33:52;;;;;;;6.25;2.28;;;17.20;90.60;;;;;;4142169;28;20026;-67
2022/09/01 05:35:56;;;;;;;4.05;2.03;;;17.10;90.70;;;;;;4140659;28;20100;-66
2022/09/01 05:37:58;;;;;;;3.58;1.90;;;17.10;90.90;;;;;;4139499;28;20046;-67
2022/09/01 05:39:59;;;;;;;4.18;2.00;;;17.10;91.10;;;;;;4141631;28;20132;-67
2022/09/01 05:42:00;;;;;;;4.53;2.72;;;17.10;91.30;;;;;;4140365;28;20037;-67
2022/09/01 05:44:07;;;;;;;6.10;2.55;;;17.10;91.30;;;;;;4139798;28;21046;-68
2022/09/01 05:46:07;;;;;;;4.28;2.20;;;17.00;91.30;;;;;;4139000;28;20057;-67
2022/09/01 05:48:09;;;;;;;4.72;2.42;;;17.10;91.50;;;;;;4138808;28;20026;-67
2022/09/01 05:50:10;;;;;;;8.95;2.63;;;17.00;91.50;;;;;;4140822;28;20026;-67
2022/09/01 05:52:10;;;;;;;5.80;2.80;;;17.10;91.60;;;;;;4140965;28;20144;-67
2022/09/01 05:54:12;;;;;;;4.80;2.05;;;17.00;91.60;;;;;;4140194;28;20158;-67
2022/09/01 05:56:13;;;;;;;6.10;2.75;;;17.10;91.80;;;;;;4138256;28;20421;-67
2022/09/01 05:58:15;;;;;;;5.13;2.42;;;17.10;91.80;;;;;;4139166;28;20041;-66
2022/09/01 06:00:16;;;;;;;7.55;2.72;;;17.10;92.00;;;;;;4140524;28;20156;-67
2022/09/01 06:02:17;;;;;;;4.63;2.13;;;17.10;91.80;;;;;;4137180;28;20034;-67
2022/09/01 06:04:18;;;;;;;6.43;2.65;;;17.20;91.80;;;;;;4140944;28;20497;-67
2022/09/01 06:06:21;;;;;;;4.22;2.15;;;17.10;91.70;;;;;;4140062;28;20029;-67
2022/09/01 06:08:24;;;;;;;3.30;1.98;;;17.20;91.80;;;;;;4139207;28;20049;-68
2022/09/01 06:10:25;;;;;;;5.72;2.05;;;17.20;91.70;;;;;;4140637;28;20139;-67
2022/09/01 06:12:27;;;;;;;3.05;2.05;;;17.30;91.30;;;;;;4140727;28;20943;-67
2022/09/01 06:14:28;;;;;;;2.80;1.90;;;17.30;91.30;;;;;;4140135;28;20532;-67
2022/09/01 06:16:29;;;;;;;7.78;2.08;;;17.40;91.40;;;;;;4139751;28;20046;-68
2022/09/01 06:18:33;;;;;;;6.78;2.00;;;17.30;91.00;;;;;;4141022;28;20030;-68
2022/09/01 06:20:39;;;;;;;3.03;1.60;;;17.40;91.10;;;;;;4140402;28;20466;-67
2022/09/01 06:22:39;;;;;;;2.88;1.92;;;17.50;91.00;;;;;;4139947;28;20030;-68
2022/09/01 06:24:40;;;;;;;3.83;2.03;;;17.50;90.90;;;;;;4139670;28;20080;-67
2022/09/01 06:26:45;;;;;;;3.00;1.80;;;17.50;90.90;;;;;;4139486;28;20486;-67
2022/09/01 06:28:46;;;;;;;4.68;2.20;;;17.50;90.80;;;;;;4139812;28;21195;-67
2022/09/01 06:30:47;;;;;;;5.33;2.27;;;17.50;91.00;;;;;;4137404;28;20080;-67
2022/09/01 06:32:48;;;;;;;5.85;1.85;;;17.60;90.80;;;;;;4139888;28;20087;-67
2022/09/01 06:34:50;;;;;;;3.97;2.00;;;17.70;91.20;;;;;;4139270;28;20476;-67
2022/09/01 06:36:51;;;;;;;3.60;1.80;;;17.90;90.60;;;;;;4139182;28;20041;-68
2022/09/01 06:38:54;;;;;;;7.00;2.58;;;18.30;92.10;;;;;;4141337;28;20030;-67
2022/09/01 06:41:11;;;;;;;4.22;1.92;;;18.50;89.50;;;;;;4139788;28;20034;-67
2022/09/01 06:43:14;;;;;;;3.97;1.73;;;18.70;87.80;;;;;;4140784;28;20062;-67
2022/09/01 06:45:17;;;;;;;4.40;1.77;;;19.00;88.10;;;;;;4132174;28;20044;-67
2022/09/01 06:47:18;;;;;;;3.40;1.90;;;19.40;86.50;;;;;;4136308;28;20050;-67
2022/09/01 06:49:20;;;;;;;3.00;1.58;;;19.70;86.20;;;;;;4137061;28;20033;-67
2022/09/01 06:51:21;;;;;;;10.20;2.53;;;20.10;85.40;;;;;;4138900;28;20030;-67
2022/09/01 06:53:22;;;;;;;7.07;2.28;;;20.10;84.50;;;;;;4138596;28;20081;-68
2022/09/01 06:55:22;;;;;;;5.32;2.17;;;20.30;84.00;;;;;;4140622;28;20030;-68
2022/09/01 06:57:24;;;;;;;4.57;2.10;;;20.70;84.20;;;;;;4136792;28;20374;-68
2022/09/01 06:59:30;;;;;;;5.22;2.30;;;21.10;83.80;;;;;;4141201;28;20033;-67
2022/09/01 07:01:31;;;;;;;6.10;3.00;;;21.40;82.10;;;;;;4139927;28;20049;-67
2022/09/01 07:03:32;;;;;;;5.07;2.60;;;21.70;80.70;;;;;;4139726;28;20690;-67
2022/09/01 07:05:34;;;;;;;7.37;2.47;;;21.80;79.20;;;;;;4139179;28;20041;-67
2022/09/01 07:07:34;;;;;;;6.63;2.63;;;22.00;79.00;;;;;;4140363;28;20042;-67
2022/09/01 07:09:35;;;;;;;3.88;2.08;;;22.20;78.70;;;;;;4139942;28;20046;-67
2022/09/01 07:11:36;;;;;;;4.80;2.63;;;22.50;78.20;;;;;;4139186;28;20519;-67
2022/09/01 07:13:38;;;;;;;5.32;1.98;;;22.70;80.80;;;;;;4139526;28;20042;-67
2022/09/01 07:15:42;;;;;;;3.75;2.20;;;22.90;76.70;;;;;;4139811;28;20061;-67
2022/09/01 07:17:51;;;;;;;5.68;1.95;;;23.20;78.40;;;;;;4139170;28;20053;-67
2022/09/01 07:19:52;;;;;;;4.38;2.03;;;23.30;75.20;;;;;;4138144;28;20042;-68
2022/09/01 07:21:54;;;;;;;5.23;1.70;;;23.50;74.70;;;;;;4138104;28;20117;-67
2022/09/01 07:23:56;;;;;;;4.75;2.25;;;23.40;73.10;;;;;;4136979;28;20037;-67
2022/09/01 07:25:58;;;;;;;3.72;1.70;;;23.40;73.30;;;;;;4137950;28;20038;-67
2022/09/01 07:28:00;;;;;;;7.40;1.98;;;23.30;73.50;;;;;;4139551;28;20042;-67
2022/09/01 07:30:02;;;;;;;2.42;1.30;;;23.50;72.60;;;;;;4140199;28;20038;-67
2022/09/01 07:32:02;;;;;;;1.85;1.02;;;23.20;72.10;;;;;;4138196;28;20061;-67
2022/09/01 07:34:11;;;;;;;3.85;1.52;;;23.20;72.10;;;;;;4142962;28;20045;-68
2022/09/01 07:36:12;;;;;;;2.47;1.27;;;23.30;71.90;;;;;;4141792;28;20454;-67
2022/09/01 07:38:13;;;;;;;6.53;1.20;;;23.20;71.70;;;;;;4142895;28;20500;-70
2022/09/01 07:40:17;;;;;;;3.25;1.60;;;23.10;72.30;;;;;;4142655;28;20030;-68
2022/09/01 07:42:19;;;;;;;2.75;1.30;;;23.10;73.90;;;;;;4141658;28;20034;-68
2022/09/01 07:44:20;;;;;;;1.83;1.30;;;23.30;72.60;;;;;;4141848;28;20026;-68
2022/09/01 07:46:22;;;;;;;4.55;1.38;;;23.40;71.60;;;;;;4142319;28;20048;-68
2022/09/01 07:48:25;;;;;;;3.38;1.42;;;23.40;71.90;;;;;;4142727;28;20034;-68
2022/09/01 07:50:27;;;;;;;2.97;1.20;;;23.10;71.60;;;;;;4138112;28;20061;-67
2022/09/01 07:52:30;;;;;;;10.98;1.40;;;23.30;75.20;;;;;;4142547;28;20436;-68
2022/09/01 07:54:32;;;;;;;;;;;23.40;71.50;;;;;;4143461;28;20496;-68
2022/09/01 07:56:33;;;;;;;3.05;1.80;;;23.10;71.80;;;;;;4142328;28;19925;-68
2022/09/01 07:58:37;;;;;;;4.28;1.55;;;23.20;72.60;;;;;;4142761;28;20107;-68
2022/09/01 08:00:39;;;;;;;7.43;1.75;;;23.20;71.90;;;;;;4143603;28;20835;-68
2022/09/01 08:02:43;;;;;;;2.88;1.27;;;23.30;71.90;;;;;;4142575;28;20422;-68
2022/09/01 08:04:43;;;;;;;2.13;1.20;;;23.20;71.20;;;;;;4141587;28;20062;-68
2022/09/01 08:06:44;;;;;;;3.30;1.73;;;23.40;71.00;;;;;;4141710;28;20045;-68
2022/09/01 08:08:47;;;;;;;2.47;1.30;;;23.50;70.40;;;;;;4144102;28;20397;-68
2022/09/01 08:10:48;;;;;;;1.90;1.40;;;23.60;70.90;;;;;;4144183;28;20096;-68
2022/09/01 08:12:50;;;;;;;3.83;1.60;;;23.80;70.30;;;;;;4145562;28;20030;-68
2022/09/01 08:14:52;;;;;;;2.67;1.17;;;23.70;69.00;;;;;;4145304;28;20033;-68
2022/09/01 08:16:52;;;;;;;2.35;1.38;;;23.80;73.60;;;;;;4145193;28;20444;-68
2022/09/01 08:18:53;;;;;;;3.20;1.20;;;24.10;72.00;;;;;;4145655;28;20038;-68
2022/09/01 08:20:53;;;;;;;5.60;1.23;;;24.30;70.20;;;;;;4142705;28;20474;-68
2022/09/01 08:22:54;;;;;;;2.67;1.20;;;24.30;68.00;;;;;;4141251;28;20501;-68
2022/09/01 08:24:55;;;;;;;1.67;0.98;;;24.30;68.70;;;;;;4141761;28;20045;-69
2022/09/01 08:26:56;;;;;;;1.50;0.95;;;24.50;68.20;;;;;;4137976;28;20779;-68
2022/09/01 08:28:56;;;;;;;4.10;1.13;;;24.40;66.30;;;;;;4139854;28;20080;-68
2022/09/01 08:30:58;;;;;;;2.97;1.00;;;24.40;66.30;;;;;;4138733;28;20033;-68
2022/09/01 08:33:00;;;;;;;2.92;1.00;;;24.30;65.60;;;;;;4140623;28;20065;-68
2022/09/01 08:35:03;;;;;;;1.67;0.98;;;24.10;65.60;;;;;;4141003;28;20496;-68
2022/09/01 08:37:05;;;;;;;2.80;1.30;;;24.10;66.30;;;;;;4139740;28;20042;-68
2022/09/01 08:39:06;;;;;;;1.95;1.20;;;24.10;65.70;;;;;;4141198;28;20420;-69
2022/09/01 08:41:22;;;;;;;1.48;0.93;;;24.00;66.30;;;;;;4140303;28;20153;-68
2022/09/01 08:43:45;;;;;;;2.63;1.10;;;24.30;69.00;;;;;;4136022;28;20039;-68
2022/09/01 08:45:52;;;;;;;1.60;0.80;;;24.50;68.30;;;;;;4138634;28;20038;-68
2022/09/01 08:47:56;;;;;;;2.42;1.20;;;24.40;65.90;;;;;;4140735;28;20281;-68
2022/09/01 08:49:58;;;;;;;3.35;1.48;;;24.40;65.40;;;;;;4135583;28;20116;-68
2022/09/01 08:52:09;;;;;;;4.00;1.48;;;24.40;64.80;;;;;;4138479;28;20030;-68
2022/09/01 08:54:27;;;;;;;6.63;2.33;;;24.50;66.70;;;;;;4135852;28;20034;-67
2022/09/01 08:56:28;;;;;;;3.67;1.48;;;24.40;64.90;;;;;;4135625;28;20038;-68
2022/09/01 08:58:30;;;;;;;5.18;1.40;;;24.40;65.40;;;;;;4133838;28;20033;-68
2022/09/01 09:00:40;;;;;;;2.50;1.20;;;24.50;65.10;;;;;;4136105;28;20145;-68
2022/09/01 09:03:15;;;;;;;2.33;1.20;;;24.60;64.80;;;;;;4139935;28;20192;-69
2022/09/01 09:05:34;;;;;;;3.35;1.00;;;24.70;65.40;;;;;;4136120;28;20505;-67
2022/09/01 09:07:43;;;;;;;5.70;1.30;;;24.90;65.00;;;;;;4139955;28;20173;-68
2022/09/01 09:09:52;;;;;;;2.33;1.05;;;24.90;63.70;;;;;;4140843;28;20042;-68
2022/09/01 09:11:57;;;;;;;2.35;1.15;;;24.90;63.80;;;;;;4136996;28;20044;-68
2022/09/01 09:14:31;;;;;;;3.38;1.15;;;24.90;65.50;;;;;;4135287;28;20045;-68
2022/09/01 09:16:39;;;;;;;3.13;1.23;;;25.00;65.20;;;;;;4138180;28;20140;-67
2022/09/01 09:18:48;;;;;;;3.13;0.98;;;25.00;63.70;;;;;;4138239;28;20038;-68
2022/09/01 09:20:50;;;;;;;2.58;0.82;;;24.90;63.10;;;;;;4138002;28;20521;-67
2022/09/01 09:22:52;;;;;;;2.15;1.00;;;25.00;63.00;;;;;;4139893;28;20432;-67
2022/09/01 09:25:06;;;;;;;1.88;1.10;;;25.00;61.50;;;;;;4139177;28;20026;-67
2022/09/01 09:27:07;;;;;;;3.65;1.17;;;25.00;61.80;;;;;;4138920;28;20050;-68
2022/09/01 09:29:07;;;;;;;3.28;1.30;;;25.00;62.90;;;;;;4133653;28;20034;-67
2022/09/01 09:31:31;;;;;;;1.63;0.70;;;24.90;61.70;;;;;;4139261;28;20038;-68
2022/09/01 09:33:37;;;;;;;5.32;1.48;;;24.70;63.00;;;;;;4136149;28;20337;-67
2022/09/01 09:35:41;;;;;;;2.40;1.05;;;24.90;62.10;;;;;;4130724;28;20038;-67
2022/09/01 09:37:41;;;;;;;6.13;1.80;;;25.00;65.60;;;;;;4139726;28;20038;-67
2022/09/01 09:39:42;;;;;;;1.50;1.02;;;25.00;61.30;;;;;;4136456;28;20081;-67
2022/09/01 09:42:03;;;;;;;1.23;0.65;;;25.10;60.40;;;;;;4138335;28;20045;-67
2022/09/01 09:44:41;;;;;;;2.42;1.35;;;25.10;60.60;;;;;;4137924;28;20141;-68
2022/09/01 09:46:44;;;;;;;2.10;1.10;;;25.20;60.90;;;;;;4135284;28;20045;-68
2022/09/01 09:48:45;;;;;;;4.88;1.25;;;25.30;60.60;;;;;;4140738;28;20053;-69
2022/09/01 09:50:45;;;;;;;1.42;0.80;;;25.30;59.60;;;;;;4134770;28;20038;-68
2022/09/01 09:52:47;;;;;;;3.88;1.05;;;25.50;57.60;;;;;;4139343;28;20045;-67
2022/09/01 09:55:18;;;;;;;0.65;0.57;;;25.30;54.10;;;;;;4138334;28;22821;-68
2022/09/01 09:57:18;;;;;;;1.30;0.63;;;25.30;52.50;;;;;;4139194;28;20068;-67
2022/09/01 09:59:46;;;;;;;2.28;0.60;;;25.40;52.90;;;;;;4138855;28;20041;-67
2022/09/01 10:01:52;;;;;;;0.77;0.55;;;25.10;54.80;;;;;;4134847;28;20041;-67
2022/09/01 10:03:56;;;;;;;1.52;0.80;;;25.20;55.50;;;;;;4141437;28;20101;-68
2022/09/01 10:05:56;;;;;;;0.80;0.68;;;25.40;57.10;;;;;;4140657;28;20085;-68
2022/09/01 10:07:57;;;;;;;1.00;0.60;;;25.50;57.70;;;;;;4140871;28;20250;-67
2022/09/01 10:10:02;;;;;;;2.17;0.93;;;25.60;57.00;;;;;;4139103;28;20037;-67
2022/09/01 10:12:04;;;;;;;1.85;1.00;;;25.40;54.80;;;;;;4138211;28;20034;-67
2022/09/01 10:14:11;;;;;;;4.18;1.35;;;25.30;57.20;;;;;;4132895;28;20127;-67
2022/09/01 10:16:31;;;;;;;0.82;0.70;;;25.50;57.40;;;;;;4137910;28;20137;-67
2022/09/01 10:18:38;;;;;;;1.13;0.80;;;25.50;56.30;;;;;;4132504;28;20046;-67
2022/09/01 10:20:52;;;;;;;1.10;0.80;;;25.40;55.20;;;;;;4138881;28;20033;-66
2022/09/01 10:22:53;;;;;;;0.77;0.60;;;25.10;55.20;;;;;;4136848;28;20041;-67
2022/09/01 10:24:53;;;;;;;1.45;0.70;;;25.10;56.30;;;;;;4139017;28;20034;-67
2022/09/01 10:26:58;;;;;;;3.33;0.90;;;25.20;55.60;;;;;;4138712;28;20030;-67
2022/09/01 10:29:17;;;;;;;1.70;0.80;;;25.30;55.90;;;;;;4139343;28;20030;-67
2022/09/01 10:31:20;;;;;;;0.70;0.70;;;25.20;55.60;;;;;;4135073;28;20046;-67
2022/09/01 10:33:21;;;;;;;;;;;25.20;56.10;;;;;;4141034;28;20389;-66
2022/09/01 10:35:34;;;;;;;1.23;0.65;;;25.20;55.60;;;;;;4141569;28;20448;-67
2022/09/01 10:37:35;;;;;;;;;;;25.20;55.50;;;;;;4140344;28;20069;-67
2022/09/01 10:40:09;;;;;;;3.72;1.00;;;25.20;55.90;;;;;;4137210;28;20028;-67
2022/09/01 10:42:17;;;;;;;0.90;0.70;;;25.20;55.60;;;;;;4137971;28;20038;-67
2022/09/01 10:44:24;;;;;;;0.85;0.65;;;25.10;56.20;;;;;;4140040;28;20449;-68
2022/09/01 10:46:25;;;;;;;1.20;0.98;;;25.20;56.00;;;;;;4137796;28;20061;-67
2022/09/01 10:48:30;;;;;;;0.83;0.60;;;25.00;56.10;;;;;;4137246;28;20042;-66
2022/09/01 10:50:31;;;;;;;4.78;1.02;;;25.10;56.60;;;;;;4138010;28;20033;-66